sensor_id;sensor_type;location;lat;lon;timestamp;temperature;humidity
22996;DHT22;11664;49.774;8.650;2023-09-07T00:00:55;22.20;99.90
22996;DHT22;11664;49.774;8.650;2023-09-07T00:03:26;22.30;99.90
22996;DHT22;11664;49.774;8.650;2023-09-07T00:05:52;22.30;99.90
22996;DHT22;11664;49.774;8.650;2023-09-07T00:08:17;22.20;99.90
22996;DHT22;11664;49.774;8.650;2023-09-07T00:10:43;22.20;99.90
22996;DHT22;11664;49.774;8.650;2023-09-07T00:13:08;22.10;99.90
22996;DHT22;11664;49.774;8.650;2023-09-07T00:15:43;22.00;99.90
22996;DHT22;11664;49.774;8.650;2023-09-07T00:18:17;22.00;99.90
22996;DHT22;11664;49.774;8.650;2023-09-07T00:20:43;22.00;99.90
22996;DHT22;11664;49.774;8.650;2023-09-07T00:23:11;22.00;99.90
22996;DHT22;11664;49.774;8.650;2023-09-07T00:25:37;22.00;99.90
22996;DHT22;11664;49.774;8.650;2023-09-07T00:28:03;22.10;99.90
22996;DHT22;11664;49.774;8.650;2023-09-07T00:30:46;22.10;99.90
22996;DHT22;11664;49.774;8.650;2023-09-07T00:33:11;22.20;99.90
22996;DHT22;11664;49.774;8.650;2023-09-07T00:36:01;22.10;99.90
22996;DHT22;11664;49.774;8.650;2023-09-07T00:38:36;22.10;99.90
22996;DHT22;11664;49.774;8.650;2023-09-07T00:41:02;21.90;99.90
22996;DHT22;11664;49.774;8.650;2023-09-07T00:43:33;21.90;99.90
22996;DHT22;11664;49.774;8.650;2023-09-07T00:46:05;21.90;99.90
22996;DHT22;11664;49.774;8.650;2023-09-07T00:48:31;22.00;99.90
22996;DHT22;11664;49.774;8.650;2023-09-07T00:50:56;22.00;99.90
22996;DHT22;11664;49.774;8.650;2023-09-07T00:53:22;21.80;99.90
22996;DHT22;11664;49.774;8.650;2023-09-07T00:55:54;21.90;99.90
22996;DHT22;11664;49.774;8.650;2023-09-07T00:58:29;21.70;99.90
22996;DHT22;11664;49.774;8.650;2023-09-07T01:00:59;21.90;99.90
22996;DHT22;11664;49.774;8.650;2023-09-07T01:03:24;21.80;99.90
22996;DHT22;11664;49.774;8.650;2023-09-07T01:08:49;21.80;99.90
22996;DHT22;11664;49.774;8.650;2023-09-07T01:11:17;21.70;99.90
22996;DHT22;11664;49.774;8.650;2023-09-07T01:13:43;21.60;99.90
22996;DHT22;11664;49.774;8.650;2023-09-07T01:16:10;21.60;99.90
22996;DHT22;11664;49.774;8.650;2023-09-07T01:18:39;21.60;99.90
22996;DHT22;11664;49.774;8.650;2023-09-07T01:21:11;21.60;99.90
22996;DHT22;11664;49.774;8.650;2023-09-07T01:23:38;21.40;99.90
22996;DHT22;11664;49.774;8.650;2023-09-07T01:26:07;21.50;99.90
22996;DHT22;11664;49.774;8.650;2023-09-07T01:28:36;21.50;99.90
22996;DHT22;11664;49.774;8.650;2023-09-07T01:31:07;21.60;99.90
22996;DHT22;11664;49.774;8.650;2023-09-07T01:33:39;21.40;99.90
22996;DHT22;11664;49.774;8.650;2023-09-07T01:36:20;21.50;99.90
22996;DHT22;11664;49.774;8.650;2023-09-07T01:38:45;21.40;99.90
22996;DHT22;11664;49.774;8.650;2023-09-07T01:41:15;21.30;99.90
22996;DHT22;11664;49.774;8.650;2023-09-07T01:43:40;21.20;99.90
22996;DHT22;11664;49.774;8.650;2023-09-07T01:46:06;20.90;99.90
22996;DHT22;11664;49.774;8.650;2023-09-07T01:48:31;20.50;99.90
22996;DHT22;11664;49.774;8.650;2023-09-07T01:50:59;20.30;99.90
22996;DHT22;11664;49.774;8.650;2023-09-07T01:53:31;20.00;99.90
22996;DHT22;11664;49.774;8.650;2023-09-07T01:56:00;20.00;99.90
22996;DHT22;11664;49.774;8.650;2023-09-07T01:58:25;19.80;99.90
22996;DHT22;11664;49.774;8.650;2023-09-07T02:01:03;19.50;99.90
22996;DHT22;11664;49.774;8.650;2023-09-07T02:03:34;19.30;99.90
22996;DHT22;11664;49.774;8.650;2023-09-07T02:06:06;19.20;99.90
22996;DHT22;11664;49.774;8.650;2023-09-07T02:08:38;19.10;99.90
22996;DHT22;11664;49.774;8.650;2023-09-07T02:11:06;19.00;99.90
22996;DHT22;11664;49.774;8.650;2023-09-07T02:13:35;18.90;99.90
22996;DHT22;11664;49.774;8.650;2023-09-07T02:16:07;18.90;99.90
22996;DHT22;11664;49.774;8.650;2023-09-07T02:18:42;18.80;99.90
22996;DHT22;11664;49.774;8.650;2023-09-07T02:21:16;18.80;99.90
22996;DHT22;11664;49.774;8.650;2023-09-07T02:23:48;18.80;99.90
22996;DHT22;11664;49.774;8.650;2023-09-07T02:26:17;18.50;99.90
22996;DHT22;11664;49.774;8.650;2023-09-07T02:28:45;18.50;99.90
22996;DHT22;11664;49.774;8.650;2023-09-07T02:31:17;18.30;99.90
22996;DHT22;11664;49.774;8.650;2023-09-07T02:33:48;18.00;99.90
22996;DHT22;11664;49.774;8.650;2023-09-07T02:36:14;18.00;99.90
22996;DHT22;11664;49.774;8.650;2023-09-07T02:38:39;17.80;99.90
22996;DHT22;11664;49.774;8.650;2023-09-07T02:41:08;17.80;99.90
22996;DHT22;11664;49.774;8.650;2023-09-07T02:43:37;17.60;99.90
22996;DHT22;11664;49.774;8.650;2023-09-07T02:46:02;17.60;99.90
22996;DHT22;11664;49.774;8.650;2023-09-07T02:48:31;17.70;99.90
22996;DHT22;11664;49.774;8.650;2023-09-07T02:50:57;17.50;99.90
22996;DHT22;11664;49.774;8.650;2023-09-07T02:53:26;17.40;99.90
22996;DHT22;11664;49.774;8.650;2023-09-07T02:55:55;17.20;99.90
22996;DHT22;11664;49.774;8.650;2023-09-07T02:58:22;17.30;99.90
22996;DHT22;11664;49.774;8.650;2023-09-07T03:00:57;17.30;99.90
22996;DHT22;11664;49.774;8.650;2023-09-07T03:03:23;17.20;99.90
22996;DHT22;11664;49.774;8.650;2023-09-07T03:05:49;17.10;99.90
22996;DHT22;11664;49.774;8.650;2023-09-07T03:08:17;17.10;99.90
22996;DHT22;11664;49.774;8.650;2023-09-07T03:10:43;17.00;99.90
22996;DHT22;11664;49.774;8.650;2023-09-07T03:13:15;17.20;99.90
22996;DHT22;11664;49.774;8.650;2023-09-07T03:15:44;17.00;99.90
22996;DHT22;11664;49.774;8.650;2023-09-07T03:18:15;17.00;99.90
22996;DHT22;11664;49.774;8.650;2023-09-07T03:20:47;17.00;99.90
22996;DHT22;11664;49.774;8.650;2023-09-07T03:23:13;16.90;99.90
22996;DHT22;11664;49.774;8.650;2023-09-07T03:25:44;16.80;99.90
22996;DHT22;11664;49.774;8.650;2023-09-07T03:28:13;16.70;99.90
22996;DHT22;11664;49.774;8.650;2023-09-07T03:30:38;16.70;99.90
22996;DHT22;11664;49.774;8.650;2023-09-07T03:33:07;16.70;99.90
22996;DHT22;11664;49.774;8.650;2023-09-07T03:35:35;16.60;99.90
22996;DHT22;11664;49.774;8.650;2023-09-07T03:38:03;16.80;99.90
22996;DHT22;11664;49.774;8.650;2023-09-07T03:40:32;16.60;99.90
22996;DHT22;11664;49.774;8.650;2023-09-07T03:42:57;16.60;99.90
22996;DHT22;11664;49.774;8.650;2023-09-07T03:45:23;16.60;99.90
22996;DHT22;11664;49.774;8.650;2023-09-07T03:47:55;16.50;99.90
22996;DHT22;11664;49.774;8.650;2023-09-07T03:50:29;16.60;99.90
22996;DHT22;11664;49.774;8.650;2023-09-07T03:53:01;16.60;99.90
22996;DHT22;11664;49.774;8.650;2023-09-07T03:55:42;16.80;99.90
22996;DHT22;11664;49.774;8.650;2023-09-07T03:58:11;16.80;99.90
22996;DHT22;11664;49.774;8.650;2023-09-07T04:00:44;16.80;99.90
22996;DHT22;11664;49.774;8.650;2023-09-07T04:03:10;16.70;99.90
22996;DHT22;11664;49.774;8.650;2023-09-07T04:05:38;16.70;99.90
22996;DHT22;11664;49.774;8.650;2023-09-07T04:08:04;16.60;99.90
22996;DHT22;11664;49.774;8.650;2023-09-07T04:10:37;16.50;99.90
22996;DHT22;11664;49.774;8.650;2023-09-07T04:13:04;16.40;99.90
22996;DHT22;11664;49.774;8.650;2023-09-07T04:15:30;16.40;99.90
22996;DHT22;11664;49.774;8.650;2023-09-07T04:17:56;16.50;99.90
22996;DHT22;11664;49.774;8.650;2023-09-07T04:20:28;16.40;99.90
22996;DHT22;11664;49.774;8.650;2023-09-07T04:22:54;16.40;99.90
22996;DHT22;11664;49.774;8.650;2023-09-07T04:25:23;16.40;99.90
22996;DHT22;11664;49.774;8.650;2023-09-07T04:27:48;16.40;99.90
22996;DHT22;11664;49.774;8.650;2023-09-07T04:30:14;16.40;99.90
22996;DHT22;11664;49.774;8.650;2023-09-07T04:32:42;16.30;99.90
22996;DHT22;11664;49.774;8.650;2023-09-07T04:35:11;16.40;99.90
22996;DHT22;11664;49.774;8.650;2023-09-07T04:37:36;16.30;99.90
22996;DHT22;11664;49.774;8.650;2023-09-07T04:40:02;16.40;99.90
22996;DHT22;11664;49.774;8.650;2023-09-07T04:42:28;16.40;99.90
22996;DHT22;11664;49.774;8.650;2023-09-07T04:44:59;16.40;99.90
22996;DHT22;11664;49.774;8.650;2023-09-07T04:47:25;16.60;99.90
22996;DHT22;11664;49.774;8.650;2023-09-07T04:50:09;16.70;99.90
22996;DHT22;11664;49.774;8.650;2023-09-07T04:52:41;16.90;99.90
22996;DHT22;11664;49.774;8.650;2023-09-07T04:55:07;17.00;99.90
22996;DHT22;11664;49.774;8.650;2023-09-07T04:57:36;17.20;99.90
22996;DHT22;11664;49.774;8.650;2023-09-07T05:00:08;17.40;99.90
22996;DHT22;11664;49.774;8.650;2023-09-07T05:02:40;17.60;99.90
22996;DHT22;11664;49.774;8.650;2023-09-07T05:05:08;17.70;99.90
22996;DHT22;11664;49.774;8.650;2023-09-07T05:07:36;18.00;99.90
22996;DHT22;11664;49.774;8.650;2023-09-07T05:10:20;18.00;99.90
22996;DHT22;11664;49.774;8.650;2023-09-07T05:12:51;18.20;99.90
22996;DHT22;11664;49.774;8.650;2023-09-07T05:15:22;18.30;99.90
22996;DHT22;11664;49.774;8.650;2023-09-07T05:17:48;18.30;99.90
22996;DHT22;11664;49.774;8.650;2023-09-07T05:20:19;18.40;99.90
22996;DHT22;11664;49.774;8.650;2023-09-07T05:22:52;18.60;99.90
22996;DHT22;11664;49.774;8.650;2023-09-07T05:25:42;18.60;99.90
22996;DHT22;11664;49.774;8.650;2023-09-07T05:28:08;18.70;99.90
22996;DHT22;11664;49.774;8.650;2023-09-07T05:30:40;18.60;99.90
22996;DHT22;11664;49.774;8.650;2023-09-07T05:33:06;18.30;99.90
22996;DHT22;11664;49.774;8.650;2023-09-07T05:35:31;18.20;99.90
22996;DHT22;11664;49.774;8.650;2023-09-07T05:38:20;18.00;99.90
22996;DHT22;11664;49.774;8.650;2023-09-07T05:40:46;18.10;99.90
22996;DHT22;11664;49.774;8.650;2023-09-07T05:43:15;18.20;99.90
22996;DHT22;11664;49.774;8.650;2023-09-07T05:45:41;18.30;99.90
22996;DHT22;11664;49.774;8.650;2023-09-07T05:48:10;18.50;99.90
22996;DHT22;11664;49.774;8.650;2023-09-07T05:50:37;18.70;99.90
22996;DHT22;11664;49.774;8.650;2023-09-07T05:53:10;18.80;99.90
22996;DHT22;11664;49.774;8.650;2023-09-07T05:55:39;18.90;99.90
22996;DHT22;11664;49.774;8.650;2023-09-07T05:58:08;18.90;99.90
22996;DHT22;11664;49.774;8.650;2023-09-07T06:00:37;19.00;99.90
22996;DHT22;11664;49.774;8.650;2023-09-07T06:03:05;18.90;99.90
22996;DHT22;11664;49.774;8.650;2023-09-07T06:05:34;18.90;99.90
22996;DHT22;11664;49.774;8.650;2023-09-07T06:08:07;19.00;99.90
22996;DHT22;11664;49.774;8.650;2023-09-07T06:10:33;19.00;99.90
22996;DHT22;11664;49.774;8.650;2023-09-07T06:12:58;19.00;99.90
22996;DHT22;11664;49.774;8.650;2023-09-07T06:15:25;19.10;99.90
22996;DHT22;11664;49.774;8.650;2023-09-07T06:17:51;19.10;99.90
22996;DHT22;11664;49.774;8.650;2023-09-07T06:20:16;19.10;99.90
22996;DHT22;11664;49.774;8.650;2023-09-07T06:22:44;19.10;99.90
22996;DHT22;11664;49.774;8.650;2023-09-07T06:25:10;19.10;99.90
22996;DHT22;11664;49.774;8.650;2023-09-07T06:27:36;19.10;99.90
22996;DHT22;11664;49.774;8.650;2023-09-07T06:30:01;19.20;99.90
22996;DHT22;11664;49.774;8.650;2023-09-07T06:32:28;19.20;99.90
22996;DHT22;11664;49.774;8.650;2023-09-07T06:34:56;19.20;99.90
22996;DHT22;11664;49.774;8.650;2023-09-07T06:37:22;19.20;99.90
22996;DHT22;11664;49.774;8.650;2023-09-07T06:39:50;19.20;99.90
22996;DHT22;11664;49.774;8.650;2023-09-07T06:42:15;19.30;99.90
22996;DHT22;11664;49.774;8.650;2023-09-07T06:44:41;19.40;99.90
22996;DHT22;11664;49.774;8.650;2023-09-07T06:47:07;19.40;99.90
22996;DHT22;11664;49.774;8.650;2023-09-07T06:49:32;19.50;99.90
22996;DHT22;11664;49.774;8.650;2023-09-07T06:51:58;19.50;99.90
22996;DHT22;11664;49.774;8.650;2023-09-07T06:54:24;19.60;99.90
22996;DHT22;11664;49.774;8.650;2023-09-07T06:56:50;19.70;99.90
22996;DHT22;11664;49.774;8.650;2023-09-07T06:59:15;19.70;99.90
22996;DHT22;11664;49.774;8.650;2023-09-07T07:01:41;19.70;99.90
22996;DHT22;11664;49.774;8.650;2023-09-07T07:04:07;19.70;99.90
22996;DHT22;11664;49.774;8.650;2023-09-07T07:06:37;19.80;99.90
22996;DHT22;11664;49.774;8.650;2023-09-07T07:09:02;19.70;99.90
22996;DHT22;11664;49.774;8.650;2023-09-07T07:11:28;19.70;99.90
22996;DHT22;11664;49.774;8.650;2023-09-07T07:13:54;19.80;99.90
22996;DHT22;11664;49.774;8.650;2023-09-07T07:16:19;19.80;99.90
22996;DHT22;11664;49.774;8.650;2023-09-07T07:18:45;19.90;99.90
22996;DHT22;11664;49.774;8.650;2023-09-07T07:21:10;19.90;99.90
22996;DHT22;11664;49.774;8.650;2023-09-07T07:23:36;20.00;99.90
22996;DHT22;11664;49.774;8.650;2023-09-07T07:26:01;20.00;99.90
22996;DHT22;11664;49.774;8.650;2023-09-07T07:28:27;20.10;99.90
22996;DHT22;11664;49.774;8.650;2023-09-07T07:30:52;20.10;99.90
22996;DHT22;11664;49.774;8.650;2023-09-07T07:33:22;20.20;99.90
22996;DHT22;11664;49.774;8.650;2023-09-07T07:35:47;20.20;99.90
22996;DHT22;11664;49.774;8.650;2023-09-07T07:38:14;20.30;99.90
22996;DHT22;11664;49.774;8.650;2023-09-07T07:40:40;20.50;99.90
22996;DHT22;11664;49.774;8.650;2023-09-07T07:43:05;20.50;99.90
22996;DHT22;11664;49.774;8.650;2023-09-07T07:45:34;20.50;99.90
22996;DHT22;11664;49.774;8.650;2023-09-07T07:48:03;20.50;99.90
22996;DHT22;11664;49.774;8.650;2023-09-07T07:50:37;20.60;99.90
22996;DHT22;11664;49.774;8.650;2023-09-07T07:53:03;20.60;99.90
22996;DHT22;11664;49.774;8.650;2023-09-07T07:55:29;20.80;99.90
22996;DHT22;11664;49.774;8.650;2023-09-07T07:57:54;20.70;99.90
22996;DHT22;11664;49.774;8.650;2023-09-07T08:00:20;20.80;99.90
22996;DHT22;11664;49.774;8.650;2023-09-07T08:02:46;20.90;99.90
22996;DHT22;11664;49.774;8.650;2023-09-07T08:05:11;21.10;99.90
22996;DHT22;11664;49.774;8.650;2023-09-07T08:07:40;21.20;99.90
22996;DHT22;11664;49.774;8.650;2023-09-07T08:10:05;21.20;99.90
22996;DHT22;11664;49.774;8.650;2023-09-07T08:12:31;21.20;99.90
22996;DHT22;11664;49.774;8.650;2023-09-07T08:14:57;21.40;99.90
22996;DHT22;11664;49.774;8.650;2023-09-07T08:17:22;21.40;99.90
22996;DHT22;11664;49.774;8.650;2023-09-07T08:19:48;21.50;99.90
22996;DHT22;11664;49.774;8.650;2023-09-07T08:22:16;21.60;99.90
22996;DHT22;11664;49.774;8.650;2023-09-07T08:24:48;21.50;99.90
22996;DHT22;11664;49.774;8.650;2023-09-07T08:27:14;21.50;99.90
22996;DHT22;11664;49.774;8.650;2023-09-07T08:29:44;21.50;99.90
22996;DHT22;11664;49.774;8.650;2023-09-07T08:32:13;21.60;99.90
22996;DHT22;11664;49.774;8.650;2023-09-07T08:34:39;21.80;99.90
22996;DHT22;11664;49.774;8.650;2023-09-07T08:37:06;21.80;99.90
22996;DHT22;11664;49.774;8.650;2023-09-07T08:39:34;21.90;99.90
22996;DHT22;11664;49.774;8.650;2023-09-07T08:42:00;22.00;99.90
22996;DHT22;11664;49.774;8.650;2023-09-07T08:44:26;22.20;99.90
22996;DHT22;11664;49.774;8.650;2023-09-07T08:46:52;22.30;99.90
22996;DHT22;11664;49.774;8.650;2023-09-07T08:49:19;22.30;99.90
22996;DHT22;11664;49.774;8.650;2023-09-07T08:51:45;22.40;99.90
22996;DHT22;11664;49.774;8.650;2023-09-07T08:54:12;22.50;99.90
22996;DHT22;11664;49.774;8.650;2023-09-07T08:56:37;22.50;99.90
22996;DHT22;11664;49.774;8.650;2023-09-07T08:59:03;22.40;99.90
22996;DHT22;11664;49.774;8.650;2023-09-07T09:01:30;22.50;99.90
22996;DHT22;11664;49.774;8.650;2023-09-07T09:03:57;22.80;99.90
22996;DHT22;11664;49.774;8.650;2023-09-07T09:06:23;22.80;99.90
22996;DHT22;11664;49.774;8.650;2023-09-07T09:08:52;23.00;99.90
22996;DHT22;11664;49.774;8.650;2023-09-07T09:11:19;23.10;99.90
22996;DHT22;11664;49.774;8.650;2023-09-07T09:13:45;23.10;99.90
22996;DHT22;11664;49.774;8.650;2023-09-07T09:16:11;23.30;99.90
22996;DHT22;11664;49.774;8.650;2023-09-07T09:18:38;23.40;99.90
22996;DHT22;11664;49.774;8.650;2023-09-07T09:21:05;23.60;99.90
22996;DHT22;11664;49.774;8.650;2023-09-07T09:23:35;23.50;99.90
22996;DHT22;11664;49.774;8.650;2023-09-07T09:26:02;23.60;99.90
22996;DHT22;11664;49.774;8.650;2023-09-07T09:28:31;23.70;99.90
22996;DHT22;11664;49.774;8.650;2023-09-07T09:31:01;23.90;99.90
22996;DHT22;11664;49.774;8.650;2023-09-07T09:33:26;24.10;99.90
22996;DHT22;11664;49.774;8.650;2023-09-07T09:35:54;24.10;99.90
22996;DHT22;11664;49.774;8.650;2023-09-07T09:38:20;24.00;99.90
22996;DHT22;11664;49.774;8.650;2023-09-07T09:40:45;24.10;99.90
22996;DHT22;11664;49.774;8.650;2023-09-07T09:43:12;24.40;99.90
22996;DHT22;11664;49.774;8.650;2023-09-07T09:45:38;24.50;99.90
22996;DHT22;11664;49.774;8.650;2023-09-07T09:48:05;24.30;99.90
22996;DHT22;11664;49.774;8.650;2023-09-07T09:50:31;24.40;99.90
22996;DHT22;11664;49.774;8.650;2023-09-07T09:52:58;24.50;99.90
22996;DHT22;11664;49.774;8.650;2023-09-07T09:55:24;24.40;99.90
22996;DHT22;11664;49.774;8.650;2023-09-07T09:57:50;24.40;99.90
22996;DHT22;11664;49.774;8.650;2023-09-07T10:00:16;24.70;99.90
22996;DHT22;11664;49.774;8.650;2023-09-07T10:02:50;24.80;99.90
22996;DHT22;11664;49.774;8.650;2023-09-07T10:05:17;24.90;99.90
22996;DHT22;11664;49.774;8.650;2023-09-07T10:07:44;25.10;99.90
22996;DHT22;11664;49.774;8.650;2023-09-07T10:10:14;25.10;99.90
22996;DHT22;11664;49.774;8.650;2023-09-07T10:12:58;25.00;99.90
22996;DHT22;11664;49.774;8.650;2023-09-07T10:15:27;25.40;99.90
22996;DHT22;11664;49.774;8.650;2023-09-07T10:18:12;25.40;99.90
22996;DHT22;11664;49.774;8.650;2023-09-07T10:20:56;25.30;99.90
22996;DHT22;11664;49.774;8.650;2023-09-07T10:23:22;25.50;99.90
22996;DHT22;11664;49.774;8.650;2023-09-07T10:25:52;25.70;99.90
22996;DHT22;11664;49.774;8.650;2023-09-07T10:28:23;25.60;99.90
22996;DHT22;11664;49.774;8.650;2023-09-07T10:31:12;25.60;99.90
22996;DHT22;11664;49.774;8.650;2023-09-07T10:33:38;25.80;99.90
22996;DHT22;11664;49.774;8.650;2023-09-07T10:36:06;25.90;99.90
22996;DHT22;11664;49.774;8.650;2023-09-07T10:38:33;25.90;99.90
22996;DHT22;11664;49.774;8.650;2023-09-07T10:41:00;26.20;99.90
22996;DHT22;11664;49.774;8.650;2023-09-07T10:43:27;26.20;99.90
22996;DHT22;11664;49.774;8.650;2023-09-07T10:45:54;26.40;99.90
22996;DHT22;11664;49.774;8.650;2023-09-07T10:48:20;26.50;99.90
22996;DHT22;11664;49.774;8.650;2023-09-07T10:50:46;26.30;99.90
22996;DHT22;11664;49.774;8.650;2023-09-07T10:53:13;26.10;99.90
22996;DHT22;11664;49.774;8.650;2023-09-07T10:55:41;26.10;99.90
22996;DHT22;11664;49.774;8.650;2023-09-07T10:58:09;26.30;99.90
22996;DHT22;11664;49.774;8.650;2023-09-07T11:00:35;26.80;99.90
22996;DHT22;11664;49.774;8.650;2023-09-07T11:03:07;27.00;99.90
22996;DHT22;11664;49.774;8.650;2023-09-07T11:05:35;27.00;99.90
22996;DHT22;11664;49.774;8.650;2023-09-07T11:08:03;27.10;99.90
22996;DHT22;11664;49.774;8.650;2023-09-07T11:10:33;27.10;99.90
22996;DHT22;11664;49.774;8.650;2023-09-07T11:13:02;27.20;99.90
22996;DHT22;11664;49.774;8.650;2023-09-07T11:15:30;27.30;99.90
22996;DHT22;11664;49.774;8.650;2023-09-07T11:17:56;27.10;99.90
22996;DHT22;11664;49.774;8.650;2023-09-07T11:20:23;27.50;99.90
22996;DHT22;11664;49.774;8.650;2023-09-07T11:22:48;28.10;99.90
22996;DHT22;11664;49.774;8.650;2023-09-07T11:25:15;28.40;99.90
22996;DHT22;11664;49.774;8.650;2023-09-07T11:27:40;27.60;99.90
22996;DHT22;11664;49.774;8.650;2023-09-07T11:30:06;27.80;99.90
22996;DHT22;11664;49.774;8.650;2023-09-07T11:32:34;28.10;99.90
22996;DHT22;11664;49.774;8.650;2023-09-07T11:35:00;28.30;99.60
22996;DHT22;11664;49.774;8.650;2023-09-07T11:37:25;28.40;99.90
22996;DHT22;11664;49.774;8.650;2023-09-07T11:39:51;28.40;99.90
22996;DHT22;11664;49.774;8.650;2023-09-07T11:42:17;28.20;99.70
22996;DHT22;11664;49.774;8.650;2023-09-07T11:44:42;28.60;99.90
22996;DHT22;11664;49.774;8.650;2023-09-07T11:47:08;29.30;99.90
22996;DHT22;11664;49.774;8.650;2023-09-07T11:49:34;29.30;97.70
22996;DHT22;11664;49.774;8.650;2023-09-07T11:52:00;29.10;99.90
22996;DHT22;11664;49.774;8.650;2023-09-07T11:54:25;29.20;99.80
22996;DHT22;11664;49.774;8.650;2023-09-07T11:56:51;29.30;99.40
22996;DHT22;11664;49.774;8.650;2023-09-07T11:59:17;29.50;98.40
22996;DHT22;11664;49.774;8.650;2023-09-07T12:01:43;29.10;97.60
22996;DHT22;11664;49.774;8.650;2023-09-07T12:04:09;28.50;97.60
22996;DHT22;11664;49.774;8.650;2023-09-07T12:06:34;28.90;99.00
22996;DHT22;11664;49.774;8.650;2023-09-07T12:09:01;28.90;98.40
22996;DHT22;11664;49.774;8.650;2023-09-07T12:11:27;29.30;99.00
22996;DHT22;11664;49.774;8.650;2023-09-07T12:13:52;29.60;96.30
22996;DHT22;11664;49.774;8.650;2023-09-07T12:16:18;29.20;96.30
22996;DHT22;11664;49.774;8.650;2023-09-07T12:18:43;28.70;96.60
22996;DHT22;11664;49.774;8.650;2023-09-07T12:21:09;28.60;97.80
22996;DHT22;11664;49.774;8.650;2023-09-07T12:23:34;29.10;97.10
22996;DHT22;11664;49.774;8.650;2023-09-07T12:26:01;29.30;96.80
22996;DHT22;11664;49.774;8.650;2023-09-07T12:28:30;29.10;97.00
22996;DHT22;11664;49.774;8.650;2023-09-07T12:30:56;29.60;97.40
22996;DHT22;11664;49.774;8.650;2023-09-07T12:33:21;29.80;97.30
22996;DHT22;11664;49.774;8.650;2023-09-07T12:35:47;30.10;96.00
22996;DHT22;11664;49.774;8.650;2023-09-07T12:38:12;30.10;97.20
22996;DHT22;11664;49.774;8.650;2023-09-07T12:40:42;30.20;93.90
22996;DHT22;11664;49.774;8.650;2023-09-07T12:43:09;30.00;95.90
22996;DHT22;11664;49.774;8.650;2023-09-07T12:45:34;30.10;95.30
22996;DHT22;11664;49.774;8.650;2023-09-07T12:48:00;29.70;94.60
22996;DHT22;11664;49.774;8.650;2023-09-07T12:50:27;30.30;97.00
22996;DHT22;11664;49.774;8.650;2023-09-07T12:52:52;29.90;94.40
22996;DHT22;11664;49.774;8.650;2023-09-07T12:55:19;30.10;94.50
22996;DHT22;11664;49.774;8.650;2023-09-07T12:57:45;30.40;96.20
22996;DHT22;11664;49.774;8.650;2023-09-07T13:00:11;30.50;96.30
22996;DHT22;11664;49.774;8.650;2023-09-07T13:02:37;30.30;95.40
22996;DHT22;11664;49.774;8.650;2023-09-07T13:05:03;30.50;93.60
22996;DHT22;11664;49.774;8.650;2023-09-07T13:07:31;30.80;93.80
22996;DHT22;11664;49.774;8.650;2023-09-07T13:10:01;31.20;93.40
22996;DHT22;11664;49.774;8.650;2023-09-07T13:12:32;31.10;93.80
22996;DHT22;11664;49.774;8.650;2023-09-07T13:14:58;31.10;93.00
22996;DHT22;11664;49.774;8.650;2023-09-07T13:17:23;31.60;94.60
22996;DHT22;11664;49.774;8.650;2023-09-07T13:19:49;31.50;91.50
22996;DHT22;11664;49.774;8.650;2023-09-07T13:22:15;31.60;92.40
22996;DHT22;11664;49.774;8.650;2023-09-07T13:24:40;31.20;90.90
22996;DHT22;11664;49.774;8.650;2023-09-07T13:27:06;32.70;89.40
22996;DHT22;11664;49.774;8.650;2023-09-07T13:29:32;33.40;88.60
22996;DHT22;11664;49.774;8.650;2023-09-07T13:31:58;32.30;85.30
22996;DHT22;11664;49.774;8.650;2023-09-07T13:34:24;33.50;85.30
22996;DHT22;11664;49.774;8.650;2023-09-07T13:36:50;34.90;83.90
22996;DHT22;11664;49.774;8.650;2023-09-07T13:39:15;35.30;75.80
22996;DHT22;11664;49.774;8.650;2023-09-07T13:41:41;35.70;75.10
22996;DHT22;11664;49.774;8.650;2023-09-07T13:44:06;35.50;73.60
22996;DHT22;11664;49.774;8.650;2023-09-07T13:46:33;35.10;73.80
22996;DHT22;11664;49.774;8.650;2023-09-07T13:48:59;35.00;71.00
22996;DHT22;11664;49.774;8.650;2023-09-07T13:51:25;35.30;72.90
22996;DHT22;11664;49.774;8.650;2023-09-07T13:53:51;34.90;71.00
22996;DHT22;11664;49.774;8.650;2023-09-07T13:56:17;33.30;72.10
22996;DHT22;11664;49.774;8.650;2023-09-07T13:58:43;34.20;73.10
22996;DHT22;11664;49.774;8.650;2023-09-07T14:01:09;34.70;69.10
22996;DHT22;11664;49.774;8.650;2023-09-07T14:03:34;34.80;71.40
22996;DHT22;11664;49.774;8.650;2023-09-07T14:06:00;35.20;70.40
22996;DHT22;11664;49.774;8.650;2023-09-07T14:08:25;36.10;69.20
22996;DHT22;11664;49.774;8.650;2023-09-07T14:10:51;37.30;63.70
22996;DHT22;11664;49.774;8.650;2023-09-07T14:13:18;36.30;63.20
22996;DHT22;11664;49.774;8.650;2023-09-07T14:15:44;36.90;66.70
22996;DHT22;11664;49.774;8.650;2023-09-07T14:18:10;36.10;64.50
22996;DHT22;11664;49.774;8.650;2023-09-07T14:20:35;36.70;63.60
22996;DHT22;11664;49.774;8.650;2023-09-07T14:23:01;36.50;67.00
22996;DHT22;11664;49.774;8.650;2023-09-07T14:25:27;36.90;62.40
22996;DHT22;11664;49.774;8.650;2023-09-07T14:27:53;35.60;62.30
22996;DHT22;11664;49.774;8.650;2023-09-07T14:30:18;36.80;62.70
22996;DHT22;11664;49.774;8.650;2023-09-07T14:32:44;36.60;63.40
22996;DHT22;11664;49.774;8.650;2023-09-07T14:35:12;36.50;61.80
22996;DHT22;11664;49.774;8.650;2023-09-07T14:37:38;35.30;64.80
22996;DHT22;11664;49.774;8.650;2023-09-07T14:40:04;36.20;61.40
22996;DHT22;11664;49.774;8.650;2023-09-07T14:42:30;37.10;58.60
22996;DHT22;11664;49.774;8.650;2023-09-07T14:44:55;35.70;58.60
22996;DHT22;11664;49.774;8.650;2023-09-07T14:47:22;36.30;61.00
22996;DHT22;11664;49.774;8.650;2023-09-07T14:49:51;37.00;58.10
22996;DHT22;11664;49.774;8.650;2023-09-07T14:52:17;35.90;60.90
22996;DHT22;11664;49.774;8.650;2023-09-07T14:54:43;37.10;57.50
22996;DHT22;11664;49.774;8.650;2023-09-07T14:57:09;36.50;58.80
22996;DHT22;11664;49.774;8.650;2023-09-07T14:59:34;36.40;59.30
22996;DHT22;11664;49.774;8.650;2023-09-07T15:02:00;36.90;57.60
22996;DHT22;11664;49.774;8.650;2023-09-07T15:04:25;36.00;58.90
22996;DHT22;11664;49.774;8.650;2023-09-07T15:06:51;36.70;59.00
22996;DHT22;11664;49.774;8.650;2023-09-07T15:09:17;36.90;56.50
22996;DHT22;11664;49.774;8.650;2023-09-07T15:11:43;36.00;57.70
22996;DHT22;11664;49.774;8.650;2023-09-07T15:14:08;35.90;59.40
22996;DHT22;11664;49.774;8.650;2023-09-07T15:16:34;37.40;56.60
22996;DHT22;11664;49.774;8.650;2023-09-07T15:18:59;37.50;55.90
22996;DHT22;11664;49.774;8.650;2023-09-07T15:21:25;37.20;56.40
22996;DHT22;11664;49.774;8.650;2023-09-07T15:23:53;37.30;56.70
22996;DHT22;11664;49.774;8.650;2023-09-07T15:26:22;36.20;57.00
22996;DHT22;11664;49.774;8.650;2023-09-07T15:28:49;36.00;57.80
22996;DHT22;11664;49.774;8.650;2023-09-07T15:31:14;37.60;56.30
22996;DHT22;11664;49.774;8.650;2023-09-07T15:33:40;38.60;54.90
22996;DHT22;11664;49.774;8.650;2023-09-07T15:36:05;37.10;55.20